Time;durP1;ratioP1;P1;durP2;ratioP2;P2;SDS_P1;SDS_P2;PMS_P1;PMS_P2;Temp;Humidity;BMP_temperature;BMP_pressure;BME280_temperature;BME280_humidity;BME280_pressure;Samples;Min_cycle;Max_cycle;Signal;HPM_P1;HPM_P2
2023/02/03 00:01:13;;;;;;;45.17;29.80;;;;;;;-2.23;100.00;97357.75;5087032;28;20518;-63
2023/02/03 00:03:39;;;;;;;74.20;43.22;;;;;;;-2.26;100.00;97362.97;5088982;28;21457;-63
2023/02/03 00:06:05;;;;;;;60.22;34.88;;;;;;;-2.33;100.00;97357.88;5087696;28;20038;-63
2023/02/03 00:08:30;;;;;;;49.95;33.40;;;;;;;-2.39;100.00;97350.22;5090015;28;20035;-63
2023/02/03 00:10:57;;;;;;;59.85;35.03;;;;;;;-2.38;100.00;97354.50;5088645;28;20024;-63
2023/02/03 00:13:24;;;;;;;50.17;33.25;;;;;;;-2.38;100.00;97354.50;5087934;28;20028;-63
2023/02/03 00:15:50;;;;;;;51.47;33.08;;;;;;;-2.41;100.00;97346.81;5085406;28;20403;-63
2023/02/03 00:18:15;;;;;;;45.58;29.80;;;;;;;-2.45;100.00;97352.91;5091783;28;20106;-62
2023/02/03 00:20:41;;;;;;;45.83;28.70;;;;;;;-2.45;100.00;97350.31;5092494;28;20074;-59
2023/02/03 00:23:08;;;;;;;41.40;29.23;;;;;;;-2.46;100.00;97349.44;5093997;28;20047;-59
2023/02/03 00:25:34;;;;;;;43.65;26.58;;;;;;;-2.46;100.00;97356.34;5090095;28;20119;-59
2023/02/03 00:27:59;;;;;;;39.22;27.30;;;;;;;-2.49;100.00;97349.50;5081572;28;20113;-59
2023/02/03 00:30:24;;;;;;;42.40;26.05;;;;;;;-2.53;100.00;97350.41;5084407;28;20401;-59
2023/02/03 00:32:50;;;;;;;32.40;22.67;;;;;;;-2.60;100.00;97341.91;5089990;28;20115;-59
2023/02/03 00:35:15;;;;;;;36.33;22.95;;;;;;;-2.59;100.00;97340.19;5088250;28;20040;-59
2023/02/03 00:37:41;;;;;;;33.45;23.65;;;;;;;-2.51;100.00;97343.50;5091785;28;20024;-62
2023/02/03 00:40:07;;;;;;;31.58;22.27;;;;;;;-2.46;100.00;97344.28;5082489;28;20459;-59
2023/02/03 00:42:35;;;;;;;30.88;20.55;;;;;;;-2.51;100.00;97347.84;5089074;28;20401;-59
2023/02/03 00:45:01;;;;;;;36.03;23.85;;;;;;;-2.56;100.00;97339.28;5090637;28;20027;-60
2023/02/03 00:47:26;;;;;;;38.75;25.90;;;;;;;-2.59;100.00;97340.19;5090026;28;20053;-59
2023/02/03 00:49:52;;;;;;;46.28;32.00;;;;;;;-2.61;100.00;97353.09;5084580;28;20505;-59
2023/02/03 00:52:17;;;;;;;42.58;29.13;;;;;;;-2.62;100.00;97348.81;5094896;28;20512;-59
2023/02/03 00:54:43;;;;;;;38.05;26.58;;;;;;;-2.64;100.00;97354.88;5092442;28;20457;-63
2023/02/03 00:57:08;;;;;;;39.55;25.10;;;;;;;-2.68;100.00;97353.19;5094415;28;20059;-62
2023/02/03 00:59:33;;;;;;;38.92;27.05;;;;;;;-2.69;100.00;97359.22;5086172;28;20044;-62
2023/02/03 01:01:59;;;;;;;39.13;26.45;;;;;;;-2.68;100.00;97354.06;5089515;28;20028;-62
2023/02/03 01:04:25;;;;;;;37.38;25.02;;;;;;;-2.69;100.00;97346.31;5089397;28;20409;-62
2023/02/03 01:06:50;;;;;;;25.50;18.95;;;;;;;-2.54;100.00;97346.13;5089005;28;20093;-61
2023/02/03 01:09:15;;;;;;;24.58;17.65;;;;;;;-2.54;100.00;97346.13;5080616;28;20036;-62
2023/02/03 01:11:41;;;;;;;26.17;18.20;;;;;;;-2.60;100.00;97339.31;5085028;28;20019;-62
2023/02/03 01:14:06;;;;;;;26.13;19.08;;;;;;;-2.66;100.00;97336.84;5088710;28;20098;-62
2023/02/03 01:16:35;;;;;;;26.30;17.35;;;;;;;-2.66;100.00;97339.41;5087997;28;20073;-63
2023/02/03 01:19:01;;;;;;;22.85;16.05;;;;;;;-2.67;100.00;97337.72;5093873;28;20034;-62
2023/02/03 01:21:26;;;;;;;21.88;15.77;;;;;;;-2.66;100.00;97341.13;5088622;28;20025;-62
2023/02/03 01:23:53;;;;;;;22.42;15.40;;;;;;;-2.70;100.00;97339.47;5092567;28;20044;-62
2023/02/03 01:26:21;;;;;;;27.80;16.23;;;;;;;-2.74;100.00;97341.25;5084320;28;20023;-62
2023/02/03 01:28:52;;;;;;;29.02;18.13;;;;;;;-2.77;100.00;97347.28;5056914;28;20074;-62
2023/02/03 01:31:20;;;;;;;26.08;18.20;;;;;;;-2.78;100.00;97349.88;5084208;28;20514;-62
2023/02/03 01:33:46;;;;;;;25.20;16.48;;;;;;;-2.81;100.00;97344.75;5091411;28;20483;-58
2023/02/03 01:36:13;;;;;;;23.08;16.33;;;;;;;-2.80;100.00;97342.19;5092335;28;20085;-62
2023/02/03 01:38:39;;;;;;;25.83;16.35;;;;;;;-2.80;100.00;97347.34;5088368;28;20024;-74
2023/02/03 01:41:08;;;;;;;22.95;16.92;;;;;;;-2.80;100.00;97342.19;5093422;28;20068;-74
2023/02/03 01:43:36;;;;;;;20.58;14.52;;;;;;;-2.79;100.00;97328.41;5087681;28;20044;-74
2023/02/03 01:46:17;;;;;;;26.17;15.77;;;;;;;-2.80;100.00;97331.00;5085492;28;20023;-74
2023/02/03 01:48:43;;;;;;;22.85;15.15;;;;;;;-2.80;100.00;97328.41;5084209;28;20028;-74
2023/02/03 01:51:08;;;;;;;25.52;14.32;;;;;;;-2.85;100.00;97325.06;5090879;28;20023;-74
2023/02/03 01:53:34;;;;;;;22.92;15.65;;;;;;;-2.81;100.00;97327.56;5090460;28;20057;-63
2023/02/03 01:56:01;;;;;;;18.77;13.75;;;;;;;-2.80;100.00;97326.69;5082150;28;20058;-73
2023/02/03 01:58:30;;;;;;;23.50;15.80;;;;;;;-2.83;100.00;97313.84;5091730;28;20020;-59
2023/02/03 02:00:57;;;;;;;21.52;16.77;;;;;;;-2.86;100.00;97320.78;5084830;28;20486;-60
2023/02/03 02:03:30;;;;;;;18.08;13.90;;;;;;;-2.77;100.00;97316.34;5101663;28;20103;-60
2023/02/03 02:06:02;;;;;;;18.17;13.07;;;;;;;-2.80;100.00;97315.53;5098817;28;20031;-60
2023/02/03 02:08:29;;;;;;;18.88;13.20;;;;;;;-2.83;100.00;97315.56;5093576;28;20506;-60
2023/02/03 02:10:55;;;;;;;15.60;11.68;;;;;;;-2.82;100.00;97312.13;5087633;28;20466;-60
2023/02/03 02:13:21;;;;;;;19.40;10.80;;;;;;;-2.82;100.00;97315.56;5078564;28;20024;-73
2023/02/03 02:16:06;;;;;;;11.77;9.00;;;;;;;-2.81;100.00;97308.66;5095275;28;20059;-63
2023/02/03 02:18:34;;;;;;;11.17;9.10;;;;;;;-2.85;100.00;97322.47;5094325;28;20482;-63
2023/02/03 02:21:15;;;;;;;13.93;9.00;;;;;;;-2.90;100.00;97318.22;5085921;28;20071;-63
2023/02/03 02:24:24;;;;;;;11.05;8.38;;;;;;;-2.92;100.00;97329.41;5075625;28;20044;-63
2023/02/03 02:27:24;;;;;;;10.77;7.95;;;;;;;-2.87;100.00;97330.25;5089155;28;20084;-63
2023/02/03 02:30:14;;;;;;;10.70;8.15;;;;;;;-2.88;100.00;97331.09;5090560;28;20016;-63
2023/02/03 02:33:01;;;;;;;10.32;8.55;;;;;;;-2.88;100.00;97320.78;5092679;28;20076;-74
2023/02/03 02:36:03;;;;;;;11.80;8.85;;;;;;;-2.89;100.00;97313.91;5094611;28;20028;-61
2023/02/03 02:39:02;;;;;;;10.60;8.10;;;;;;;-2.93;100.00;97315.69;5094172;28;20482;-61
2023/02/03 02:41:48;;;;;;;11.25;8.02;;;;;;;-2.97;100.00;97318.31;5089338;28;20028;-61
2023/02/03 02:44:36;;;;;;;10.05;8.23;;;;;;;-3.02;100.00;97321.81;5093121;28;20081;-61
2023/02/03 02:47:09;;;;;;;10.32;7.60;;;;;;;-3.05;100.00;97321.00;5088550;28;20024;-61
2023/02/03 02:49:39;;;;;;;12.93;7.82;;;;;;;-3.05;100.00;97326.16;5090736;28;20016;-61
2023/02/03 02:52:07;;;;;;;10.77;8.05;;;;;;;-3.09;100.00;97329.63;5093647;28;20456;-59
2023/02/03 02:54:38;;;;;;;9.23;7.60;;;;;;;-3.13;100.00;97331.38;5094635;28;20111;-63
2023/02/03 02:57:05;;;;;;;8.50;6.80;;;;;;;-3.15;100.00;97330.53;5091555;28;20051;-63
2023/02/03 02:59:31;;;;;;;8.18;6.35;;;;;;;-3.15;100.00;97325.41;5091451;28;20058;-63
2023/02/03 03:01:56;;;;;;;12.38;6.97;;;;;;;-3.17;100.00;97328.00;5096892;28;20024;-63
2023/02/03 03:04:26;;;;;;;9.27;7.28;;;;;;;-3.21;100.00;97326.31;5089948;28;20035;-63
2023/02/03 03:06:58;;;;;;;8.88;7.00;;;;;;;-3.20;100.00;97328.03;5093882;28;20066;-63
2023/02/03 03:09:37;;;;;;;9.95;6.60;;;;;;;-3.23;100.00;97322.06;5089474;28;20077;-63
2023/02/03 03:12:13;;;;;;;8.93;8.02;;;;;;;-3.23;100.00;97327.22;5087924;28;20028;-73
2023/02/03 03:14:44;;;;;;;8.93;7.57;;;;;;;-3.22;100.00;97321.19;5063920;28;20027;-61
2023/02/03 03:17:13;;;;;;;10.55;7.97;;;;;;;-3.16;100.00;97315.97;5058431;28;20033;-61
2023/02/03 03:19:45;;;;;;;13.02;7.60;;;;;;;-3.12;100.00;97317.63;5063137;28;20141;-61
2023/02/03 03:22:15;;;;;;;12.40;7.47;;;;;;;-3.14;100.00;97305.66;5092076;28;20470;-60
2023/02/03 03:24:49;;;;;;;11.90;8.30;;;;;;;-3.14;100.00;97305.66;5054275;28;20048;-61
2023/02/03 03:27:26;;;;;;;12.32;8.27;;;;;;;-3.09;100.00;97294.41;5092645;28;20028;-61
2023/02/03 03:29:58;;;;;;;8.98;8.07;;;;;;;-3.09;100.00;97309.88;5098571;27;20073;-73
2023/02/03 03:32:24;;;;;;;11.27;8.50;;;;;;;-3.20;100.00;97312.59;5093047;28;20379;-63
2023/02/03 03:34:51;;;;;;;9.88;7.97;;;;;;;-3.25;100.00;97313.50;5095606;28;20019;-64
2023/02/03 03:37:23;;;;;;;8.65;7.85;;;;;;;-3.30;100.00;97305.81;5094920;28;20068;-63
2023/02/03 03:39:59;;;;;;;10.65;7.72;;;;;;;-3.27;100.00;97305.78;5095072;28;20073;-64
2023/02/03 03:42:31;;;;;;;9.00;7.65;;;;;;;-3.29;100.00;97310.09;5095960;28;20028;-63
2023/02/03 03:45:02;;;;;;;8.82;7.93;;;;;;;-3.31;100.00;97315.28;5094995;28;20043;-63
2023/02/03 03:47:39;;;;;;;11.73;7.90;;;;;;;-3.35;100.00;97317.91;5092443;28;20603;-63
2023/02/03 03:50:10;;;;;;;8.23;7.43;;;;;;;-3.37;100.00;97329.94;5094013;28;20055;-59
2023/02/03 03:52:36;;;;;;;10.07;8.30;;;;;;;-3.37;100.00;97319.63;5096367;28;20023;-63
2023/02/03 03:55:07;;;;;;;9.25;8.32;;;;;;;-3.34;100.00;97329.91;5092112;28;20032;-63
2023/02/03 03:57:53;;;;;;;12.07;8.98;;;;;;;-3.42;100.00;97326.56;5093310;28;20059;-63
2023/02/03 04:00:20;;;;;;;9.75;8.13;;;;;;;-3.46;100.00;97326.56;5092855;28;20020;-63
2023/02/03 04:02:51;;;;;;;9.75;8.55;;;;;;;-3.48;100.00;97335.22;5099049;28;20440;-63
2023/02/03 04:05:18;;;;;;;9.07;7.90;;;;;;;-3.52;100.00;97336.09;5097560;28;20063;-63
2023/02/03 04:07:45;;;;;;;10.55;8.00;;;;;;;-3.52;100.00;97339.53;5092712;28;20095;-59
2023/02/03 04:10:31;;;;;;;8.20;7.35;;;;;;;-3.52;100.00;97331.78;5095125;28;20020;-61
2023/02/03 04:12:57;;;;;;;8.40;7.53;;;;;;;-3.52;100.00;97334.38;5090683;28;20762;-63
2023/02/03 04:15:22;;;;;;;8.43;7.50;;;;;;;-3.54;100.00;97340.38;5093934;28;20031;-63
2023/02/03 04:17:47;;;;;;;9.43;7.68;;;;;;;-3.60;100.00;97338.75;5096418;28;20035;-63
2023/02/03 04:20:13;;;;;;;10.52;7.90;;;;;;;-3.63;100.00;97342.19;5092107;28;20023;-63
2023/02/03 04:22:39;;;;;;;7.80;7.05;;;;;;;-3.63;100.00;97347.34;5093360;28;20020;-63
2023/02/03 04:25:05;;;;;;;12.40;7.55;;;;;;;-3.61;100.00;97345.59;5093624;28;20027;-63
2023/02/03 04:27:31;;;;;;;9.93;8.77;;;;;;;-3.64;100.00;97337.91;5092467;28;20374;-61
2023/02/03 04:29:57;;;;;;;12.75;11.48;;;;;;;-3.65;100.00;97336.22;5093802;28;20028;-60
2023/02/03 04:32:22;;;;;;;9.23;7.90;;;;;;;-3.69;100.00;97331.97;5096391;28;20026;-60
2023/02/03 04:34:49;;;;;;;11.55;8.23;;;;;;;-3.64;100.00;97339.66;5092416;28;20019;-61
2023/02/03 04:37:15;;;;;;;74.13;43.25;;;;;;;-3.59;100.00;97335.31;5074702;28;20035;-61
2023/02/03 04:39:40;;;;;;;54.25;30.45;;;;;;;-3.57;100.00;97341.28;5073273;28;20409;-61
2023/02/03 04:42:07;;;;;;;40.78;24.08;;;;;;;-3.64;100.00;97345.66;5052883;28;20025;-61
2023/02/03 04:44:32;;;;;;;23.50;14.48;;;;;;;-3.69;100.00;97339.69;5091631;28;20056;-61
2023/02/03 04:46:58;;;;;;;25.25;16.70;;;;;;;-3.71;100.00;97340.56;5072682;28;20051;-73
2023/02/03 04:49:23;;;;;;;17.10;12.90;;;;;;;-3.72;100.00;97341.44;5093959;28;20050;-61
2023/02/03 04:51:49;;;;;;;14.38;10.57;;;;;;;-3.73;100.00;97322.56;5093146;28;20031;-61
2023/02/03 04:54:14;;;;;;;11.88;10.18;;;;;;;-3.73;100.00;97320.00;5075984;28;20024;-61
2023/02/03 04:56:40;;;;;;;22.17;19.08;;;;;;;-3.69;100.00;97324.25;5091348;28;20103;-61
2023/02/03 04:59:05;;;;;;;23.40;16.25;;;;;;;-3.68;100.00;97319.94;5100243;28;20148;-61
2023/02/03 05:01:31;;;;;;;18.63;14.13;;;;;;;-3.72;100.00;97315.69;5093558;28;20015;-61
2023/02/03 05:03:56;;;;;;;16.42;14.00;;;;;;;-3.77;100.00;97321.72;5097534;28;20540;-61
2023/02/03 05:06:27;;;;;;;13.75;12.07;;;;;;;-3.79;100.00;97308.03;5097940;28;20090;-60
2023/02/03 05:08:53;;;;;;;15.63;11.80;;;;;;;-3.80;100.00;97308.03;5092470;28;20061;-63
2023/02/03 05:11:19;;;;;;;14.85;11.45;;;;;;;-3.80;100.00;97308.91;5092468;28;20016;-63
2023/02/03 05:13:44;;;;;;;11.48;9.65;;;;;;;-3.79;100.00;97310.59;5092747;28;20047;-63
2023/02/03 05:16:10;;;;;;;13.05;10.52;;;;;;;-3.80;100.00;97301.19;5090320;28;20059;-64
2023/02/03 05:18:35;;;;;;;10.93;9.73;;;;;;;-3.79;100.00;97304.59;5090601;28;20059;-64
2023/02/03 05:21:00;;;;;;;13.30;10.77;;;;;;;-3.77;100.00;97302.84;5095381;28;20020;-63
2023/02/03 05:23:26;;;;;;;11.15;9.30;;;;;;;-3.80;100.00;97306.31;5095520;28;20035;-64
2023/02/03 05:25:51;;;;;;;10.10;9.02;;;;;;;-3.88;100.00;97300.38;5090341;28;20028;-74
2023/02/03 05:28:17;;;;;;;12.63;11.30;;;;;;;-3.89;100.00;97298.66;5095014;28;20485;-74
2023/02/03 05:30:42;;;;;;;12.15;10.73;;;;;;;-3.91;100.00;97292.69;5089875;28;20403;-73
2023/02/03 05:33:08;;;;;;;9.95;8.73;;;;;;;-3.93;100.00;97289.28;5093455;28;20078;-74
2023/02/03 05:35:34;;;;;;;10.10;9.20;;;;;;;-3.93;100.00;97290.13;5092777;28;20115;-74
2023/02/03 05:37:59;;;;;;;10.40;9.40;;;;;;;-3.88;100.00;97284.94;5090557;28;20060;-74
2023/02/03 05:43:09;;;;;;;10.40;9.37;;;;;;;-3.84;100.00;97276.34;5089767;28;20090;-73
2023/02/03 05:45:37;;;;;;;11.18;10.05;;;;;;;-3.88;100.00;97288.38;5093666;28;20106;-62
2023/02/03 05:48:02;;;;;;;10.55;9.43;;;;;;;-3.92;100.00;97288.41;5074878;28;20027;-64
2023/02/03 05:50:32;;;;;;;9.02;7.57;;;;;;;-3.94;100.00;97293.59;5098201;28;20020;-64
2023/02/03 05:53:01;;;;;;;7.90;7.20;;;;;;;-3.93;100.00;97284.13;5088740;28;21940;-64
2023/02/03 05:55:28;;;;;;;8.38;7.68;;;;;;;-3.85;100.00;97274.63;5097442;28;20482;-64
2023/02/03 05:57:53;;;;;;;8.93;8.07;;;;;;;-3.85;100.00;97282.34;5092019;28;20135;-63
2023/02/03 06:00:20;;;;;;;8.10;7.38;;;;;;;-3.86;100.00;97282.34;5089545;28;20641;-63
2023/02/03 06:02:53;;;;;;;9.15;7.68;;;;;;;-3.91;100.00;97277.25;5098854;28;20872;-64
2023/02/03 06:05:19;;;;;;;10.15;9.13;;;;;;;-3.89;100.00;97278.06;5092715;28;20032;-59
2023/02/03 06:07:45;;;;;;;12.05;10.75;;;;;;;-3.83;100.00;97277.19;5087573;28;21799;-59
2023/02/03 06:10:10;;;;;;;10.95;9.95;;;;;;;-3.81;100.00;97278.00;5090957;28;20049;-60
2023/02/03 06:12:37;;;;;;;10.85;9.40;;;;;;;-3.84;100.00;97283.19;5091845;28;20024;-59
2023/02/03 06:15:02;;;;;;;10.73;9.35;;;;;;;-3.87;100.00;97289.22;5090188;28;20028;-60
2023/02/03 06:17:28;;;;;;;10.13;9.13;;;;;;;-3.94;100.00;97285.88;5068022;28;20035;-60
2023/02/03 06:19:53;;;;;;;12.75;10.85;;;;;;;-3.93;100.00;97289.28;5093262;28;20020;-59
2023/02/03 06:22:18;;;;;;;13.30;11.48;;;;;;;-3.91;100.00;97285.84;5089626;28;20022;-74
2023/02/03 06:24:45;;;;;;;13.60;10.68;;;;;;;-3.90;100.00;97289.25;5099502;28;20405;-63
2023/02/03 06:27:10;;;;;;;14.30;10.98;;;;;;;-3.97;100.00;97298.75;5091128;28;20512;-59
2023/02/03 06:29:36;;;;;;;17.30;10.40;;;;;;;-4.01;100.00;97293.66;5073756;28;20032;-59
2023/02/03 06:32:02;;;;;;;12.20;11.07;;;;;;;-4.02;100.00;97292.78;5091729;28;20035;-59
2023/02/03 06:34:27;;;;;;;15.00;11.10;;;;;;;-4.07;100.00;97294.53;5090487;28;20046;-59
2023/02/03 06:36:52;;;;;;;14.68;10.82;;;;;;;-4.12;100.00;97288.59;5089101;28;20026;-60
2023/02/03 06:39:18;;;;;;;13.43;10.85;;;;;;;-4.13;100.00;97284.31;5088676;28;20082;-60
2023/02/03 06:41:43;;;;;;;12.02;10.60;;;;;;;-4.10;100.00;97285.13;5091573;28;20032;-63
2023/02/03 06:44:08;;;;;;;14.70;13.20;;;;;;;-4.06;100.00;97283.38;5091813;28;20024;-74
2023/02/03 06:46:34;;;;;;;14.00;12.55;;;;;;;-4.03;100.00;97284.22;5090651;28;20028;-64
2023/02/03 06:48:59;;;;;;;15.05;13.15;;;;;;;-4.08;100.00;97286.00;5094837;28;20023;-65
2023/02/03 06:51:24;;;;;;;22.60;17.08;;;;;;;-4.04;100.00;97292.81;5094259;28;20059;-62
2023/02/03 06:53:50;;;;;;;32.65;28.63;;;;;;;-3.95;100.00;97302.16;5092069;28;20028;-62
2023/02/03 06:56:15;;;;;;;31.73;27.42;;;;;;;-3.95;100.00;97288.44;5071962;28;20035;-63
2023/02/03 06:58:41;;;;;;;32.92;25.58;;;;;;;-3.95;100.00;97285.88;5095101;28;20012;-62
2023/02/03 07:01:06;;;;;;;31.52;26.38;;;;;;;-3.99;100.00;97297.91;5096876;28;20031;-59
2023/02/03 07:03:31;;;;;;;31.58;27.42;;;;;;;-4.00;100.00;97303.06;5101071;28;20114;-73
2023/02/03 07:05:57;;;;;;;37.55;29.98;;;;;;;-3.99;100.00;97308.19;5091246;28;20055;-60
2023/02/03 07:08:22;;;;;;;50.97;37.75;;;;;;;-3.91;100.00;97302.97;5092859;28;20051;-61
2023/02/03 07:10:52;;;;;;;42.53;36.42;;;;;;;-3.88;100.00;97305.53;5094132;28;20027;-61
2023/02/03 07:13:17;;;;;;;42.80;35.30;;;;;;;-3.96;100.00;97309.91;5095325;28;20020;-62
2023/02/03 07:15:43;;;;;;;43.20;37.13;;;;;;;-4.00;100.00;97303.91;5097660;28;20409;-61
2023/02/03 07:18:08;;;;;;;39.42;33.78;;;;;;;-3.97;100.00;97292.75;5094341;28;20377;-60
2023/02/03 07:20:33;;;;;;;42.80;31.73;;;;;;;-3.94;100.00;97301.31;5091321;28;20019;-68
2023/02/03 07:22:59;;;;;;;40.42;31.33;;;;;;;-3.90;100.00;97300.41;5100869;28;20110;-60
2023/02/03 07:25:24;;;;;;;37.67;30.25;;;;;;;-3.91;100.00;97310.69;5095405;28;20008;-64
2023/02/03 07:27:50;;;;;;;60.50;47.05;;;;;;;-3.88;100.00;97311.53;5093138;28;20082;-63
2023/02/03 07:30:16;;;;;;;52.08;42.00;;;;;;;-3.82;100.00;97323.50;5075135;28;20007;-63
2023/02/03 07:32:47;;;;;;;59.42;44.60;;;;;;;-3.85;100.00;97325.25;5095363;28;20059;-62
2023/02/03 07:35:12;;;;;;;61.35;45.83;;;;;;;-3.86;100.00;97341.56;5091863;28;20023;-63
2023/02/03 07:37:38;;;;;;;58.55;45.00;;;;;;;-3.86;100.00;97338.97;5092878;28;20077;-63
2023/02/03 07:40:03;;;;;;;57.40;44.05;;;;;;;-3.85;100.00;97354.41;5095175;28;20027;-70
2023/02/03 07:42:29;;;;;;;54.97;41.83;;;;;;;-3.85;100.00;97349.28;5092774;28;20027;-72
2023/02/03 07:44:54;;;;;;;55.40;41.53;;;;;;;-3.87;100.00;97356.13;5098790;28;20037;-62
2023/02/03 07:47:19;;;;;;;53.88;41.55;;;;;;;-3.86;100.00;97364.72;5096178;28;20032;-62
2023/02/03 07:49:45;;;;;;;50.17;37.70;;;;;;;-3.86;100.00;97365.59;5089766;28;20050;-62
2023/02/03 07:52:10;;;;;;;44.92;34.83;;;;;;;-3.83;100.00;97369.84;5097163;28;20035;-62
2023/02/03 07:54:35;;;;;;;60.58;45.83;;;;;;;-3.77;100.00;97365.50;5088649;28;20047;-62
2023/02/03 07:57:01;;;;;;;67.03;47.33;;;;;;;-3.71;100.00;97376.59;5095655;28;20030;-62
2023/02/03 07:59:26;;;;;;;55.00;43.60;;;;;;;-3.74;100.00;97380.91;5092837;28;20034;-62
2023/02/03 08:01:54;;;;;;;52.85;42.47;;;;;;;-3.76;100.00;97385.22;5096527;28;20034;-69
2023/02/03 08:04:20;;;;;;;51.80;39.75;;;;;;;-3.77;100.00;97391.22;5095977;28;20015;-71
2023/02/03 08:06:45;;;;;;;65.03;48.75;;;;;;;-3.72;100.00;97385.19;5072573;28;20019;-71
2023/02/03 08:09:11;;;;;;;76.30;52.38;;;;;;;-3.67;100.00;97378.28;5095463;28;20486;-72
2023/02/03 08:11:36;;;;;;;79.60;54.25;;;;;;;-3.59;100.00;97381.66;5092307;28;20024;-71
2023/02/03 08:14:02;;;;;;;78.05;54.83;;;;;;;-3.57;100.00;97369.63;5094483;28;20102;-72
2023/02/03 08:16:27;;;;;;;77.82;49.65;;;;;;;-3.48;100.00;97360.97;5097384;28;20032;-72
2023/02/03 08:18:52;;;;;;;62.08;43.80;;;;;;;-3.44;100.00;97354.91;5092174;28;20132;-63
2023/02/03 08:21:18;;;;;;;58.85;40.20;;;;;;;-3.38;100.00;97341.13;5094442;28;20111;-61
2023/02/03 08:23:43;;;;;;;66.90;41.55;;;;;;;-3.33;100.00;97352.22;5091232;28;20031;-64
2023/02/03 08:26:08;;;;;;;60.67;41.80;;;;;;;-3.32;100.00;97356.50;5095466;28;20031;-63
2023/02/03 08:28:34;;;;;;;37.92;27.58;;;;;;;-3.29;100.00;97356.47;5094667;28;20027;-64
2023/02/03 08:30:59;;;;;;;49.10;33.63;;;;;;;-3.31;100.00;97363.34;5095687;28;20016;-64
2023/02/03 08:33:25;;;;;;;47.05;31.40;;;;;;;-3.30;100.00;97362.50;5092370;28;20038;-64
2023/02/03 08:35:50;;;;;;;44.10;30.88;;;;;;;-3.31;100.00;97361.66;5076283;28;20024;-63
2023/02/03 08:38:16;;;;;;;45.78;32.85;;;;;;;-3.31;100.00;97360.78;5097751;28;20023;-62
2023/02/03 08:40:41;;;;;;;50.45;33.53;;;;;;;-3.31;100.00;97356.50;5104850;27;20150;-60
2023/02/03 08:43:06;;;;;;;40.75;30.02;;;;;;;-3.27;100.00;97352.16;5093149;28;20125;-70
2023/02/03 08:45:32;;;;;;;36.40;25.48;;;;;;;-3.20;100.00;97352.94;5076605;28;20024;-70
2023/02/03 08:47:57;;;;;;;34.33;23.15;;;;;;;-3.18;100.00;97354.66;5087009;28;20596;-70
2023/02/03 08:50:23;;;;;;;31.60;22.92;;;;;;;-3.22;100.00;97355.53;5097424;28;20023;-70
2023/02/03 08:52:48;;;;;;;32.17;21.95;;;;;;;-3.18;100.00;97349.50;5079993;28;20027;-70
2023/02/03 08:55:14;;;;;;;24.17;16.98;;;;;;;-3.06;100.00;97348.50;5090701;28;20024;-70
2023/02/03 08:57:40;;;;;;;18.25;14.63;;;;;;;-3.06;100.00;97348.50;5096276;28;20477;-64
2023/02/03 09:00:08;;;;;;;20.08;15.25;;;;;;;-2.98;100.00;97351.00;5095250;28;20024;-70
2023/02/03 09:02:34;;;;;;;21.80;16.33;;;;;;;-2.93;100.00;97353.50;5100860;28;20032;-63
2023/02/03 09:04:59;;;;;;;36.97;23.80;;;;;;;-2.65;100.00;97354.00;5090265;28;20114;-60
2023/02/03 09:07:25;;;;;;;62.55;40.60;;;;;;;-2.24;100.00;97367.22;5091614;28;20065;-61
2023/02/03 09:09:51;;;;;;;49.67;44.55;;;;;;;-1.82;100.00;97368.31;5072540;28;20502;-60
2023/02/03 09:12:16;;;;;;;46.10;39.70;;;;;;;-1.41;100.00;97379.69;5091006;28;20107;-60
2023/02/03 09:14:42;;;;;;;34.20;28.95;;;;;;;-1.08;100.00;97376.53;5093831;28;20057;-60
2023/02/03 09:17:08;;;;;;;24.35;20.42;;;;;;;-0.86;100.00;97387.31;5094198;28;20047;-60
2023/02/03 09:19:34;;;;;;;23.95;15.07;;;;;;;-0.59;100.00;97400.59;5091047;28;20039;-70
2023/02/03 09:21:59;;;;;;;15.05;13.55;;;;;;;-0.38;100.00;97393.25;5092993;28;20020;-70
2023/02/03 09:24:25;;;;;;;18.15;12.70;;;;;;;-0.19;100.00;97388.53;5086223;28;20161;-70
2023/02/03 09:26:50;;;;;;;18.52;12.90;;;;;;;0.03;100.00;97383.75;5076355;28;20565;-71
2023/02/03 09:29:16;;;;;;;16.88;12.30;;;;;;;0.29;100.00;97384.84;5076245;28;20035;-71
2023/02/03 09:31:42;;;;;;;12.93;11.40;;;;;;;0.59;100.00;97386.75;5077548;28;20055;-71
2023/02/03 09:34:07;;;;;;;10.50;9.20;;;;;;;0.90;100.00;97385.94;5079992;28;20036;-71
2023/02/03 09:36:33;;;;;;;9.25;7.78;;;;;;;1.25;100.00;97384.13;5084073;28;20081;-64
2023/02/03 09:38:58;;;;;;;12.85;10.05;;;;;;;1.69;98.86;97384.59;5091581;28;20036;-64
2023/02/03 09:41:43;;;;;;;15.45;12.23;;;;;;;2.05;93.59;97382.66;5089037;28;20020;-64
2023/02/03 09:44:24;;;;;;;16.20;11.88;;;;;;;2.32;94.48;97385.28;5101608;28;20051;-65
2023/02/03 09:46:58;;;;;;;12.00;9.57;;;;;;;2.55;90.59;97390.63;5087295;28;20024;-65
2023/02/03 09:49:32;;;;;;;9.45;7.63;;;;;;;2.85;87.02;97392.22;5087705;28;20135;-65
2023/02/03 09:52:04;;;;;;;8.40;6.78;;;;;;;2.97;82.54;97384.00;5101972;28;20033;-65
2023/02/03 09:54:52;;;;;;;7.18;6.25;;;;;;;3.19;81.21;97385.00;5086729;28;20070;-63
2023/02/03 09:57:22;;;;;;;9.48;6.20;;;;;;;3.52;79.62;97395.94;5086974;28;20036;-64
2023/02/03 09:59:48;;;;;;;5.57;5.07;;;;;;;3.79;79.32;97387.16;5090002;28;20095;-64
2023/02/03 10:02:41;;;;;;;6.13;5.25;;;;;;;3.99;74.35;97389.84;5093694;28;20042;-66
2023/02/03 10:05:27;;;;;;;5.30;4.80;;;;;;;4.21;71.85;97391.63;5087862;28;20020;-65
2023/02/03 10:08:19;;;;;;;8.70;6.15;;;;;;;4.17;70.70;97392.66;5080241;28;20040;-64
2023/02/03 10:11:08;;;;;;;6.22;5.63;;;;;;;4.10;72.44;97393.81;5077234;28;20090;-65
2023/02/03 10:14:02;;;;;;;5.85;5.28;;;;;;;4.23;73.16;97392.41;5109856;28;20027;-60
2023/02/03 10:16:33;;;;;;;8.32;6.75;;;;;;;4.26;70.12;97407.94;5053296;28;20501;-70
2023/02/03 10:19:01;;;;;;;18.45;13.70;;;;;;;4.47;68.50;97399.34;5096091;28;20049;-59
2023/02/03 10:21:38;;;;;;;7.22;6.03;;;;;;;4.48;67.44;97398.41;5094035;28;20024;-59
2023/02/03 10:24:10;;;;;;;5.22;4.72;;;;;;;4.48;66.99;97386.22;5096852;28;20051;-59
2023/02/03 10:26:37;;;;;;;6.78;6.15;;;;;;;4.61;68.70;97402.22;5093192;28;20028;-59
2023/02/03 10:29:14;;;;;;;7.57;5.22;;;;;;;4.76;66.05;97405.97;5095058;28;20516;-59
2023/02/03 10:31:41;;;;;;;7.07;4.95;;;;;;;4.80;66.54;97399.69;5093247;28;20024;-60
2023/02/03 10:34:15;;;;;;;7.03;4.78;;;;;;;4.97;67.38;97404.19;5094681;28;20031;-59
2023/02/03 10:36:56;;;;;;;4.90;4.40;;;;;;;4.81;65.89;97400.53;5094856;28;20574;-69
2023/02/03 10:39:39;;;;;;;8.57;7.55;;;;;;;5.08;66.39;97398.53;5093878;28;20532;-69
2023/02/03 10:42:05;;;;;;;9.15;7.47;;;;;;;5.33;66.45;97402.69;5093502;28;20066;-68
2023/02/03 10:44:54;;;;;;;4.75;4.35;;;;;;;5.28;66.11;97396.81;5091895;28;20052;-69
2023/02/03 10:47:29;;;;;;;8.82;5.97;;;;;;;5.54;65.01;97392.19;5096145;28;20856;-70
2023/02/03 10:49:56;;;;;;;11.20;7.15;;;;;;;5.66;64.84;97391.66;5095032;28;20027;-70
2023/02/03 10:52:32;;;;;;;4.28;3.80;;;;;;;5.66;60.81;97377.72;5095213;28;20051;-61
2023/02/03 10:55:05;;;;;;;6.40;5.28;;;;;;;5.70;61.64;97372.31;5092485;28;20050;-69
2023/02/03 10:57:35;;;;;;;6.68;4.20;;;;;;;5.92;63.24;97366.09;5089754;28;20032;-63
2023/02/03 11:00:31;;;;;;;5.78;5.03;;;;;;;6.02;60.34;97350.84;5075060;28;20032;-63
2023/02/03 11:03:06;;;;;;;12.90;7.82;;;;;;;6.17;59.34;97357.09;5090893;28;20602;-63
2023/02/03 11:05:32;;;;;;;11.98;8.02;;;;;;;6.27;61.66;97350.50;5094412;28;20028;-63
2023/02/03 11:07:57;;;;;;;11.88;7.95;;;;;;;6.26;61.13;97351.41;5096711;28;20045;-63
2023/02/03 11:10:38;;;;;;;9.00;6.35;;;;;;;6.16;58.81;97334.47;5097131;28;20027;-63
2023/02/03 11:13:19;;;;;;;7.68;6.15;;;;;;;6.36;58.80;97333.50;5094220;28;20031;-69
2023/02/03 11:15:51;;;;;;;7.20;4.80;;;;;;;6.51;58.51;97331.91;5088127;28;21793;-71
2023/02/03 11:18:32;;;;;;;7.50;5.68;;;;;;;6.57;56.41;97323.75;5085613;28;20555;-70
2023/02/03 11:20:58;;;;;;;8.95;6.97;;;;;;;6.71;57.13;97322.19;5095592;28;20031;-70
2023/02/03 11:23:24;;;;;;;7.53;4.40;;;;;;;6.86;57.91;97318.81;5094213;28;20036;-69
2023/02/03 11:25:49;;;;;;;8.75;4.88;;;;;;;7.07;57.56;97318.63;5094987;28;20012;-69
2023/02/03 11:28:16;;;;;;;6.60;4.20;;;;;;;7.05;55.88;97311.75;5089041;28;20405;-68